sensor_id;sensor_type;location;lat;lon;timestamp;temperature;humidity
41756;DHT22;27435;48.480;9.258;2022-09-09T00:00:20;15.90;84.50
41756;DHT22;27435;48.480;9.258;2022-09-09T00:03:19;15.80;85.40
41756;DHT22;27435;48.480;9.258;2022-09-09T00:06:34;15.60;85.90
41756;DHT22;27435;48.480;9.258;2022-09-09T00:09:12;15.60;86.10
41756;DHT22;27435;48.480;9.258;2022-09-09T00:11:43;15.80;85.70
41756;DHT22;27435;48.480;9.258;2022-09-09T00:14:18;15.80;85.10
41756;DHT22;27435;48.480;9.258;2022-09-09T00:16:53;15.90;85.40
41756;DHT22;27435;48.480;9.258;2022-09-09T00:19:22;15.90;84.70
41756;DHT22;27435;48.480;9.258;2022-09-09T00:21:56;15.80;85.50
41756;DHT22;27435;48.480;9.258;2022-09-09T00:24:32;15.70;86.10
41756;DHT22;27435;48.480;9.258;2022-09-09T00:27:08;15.80;85.90
41756;DHT22;27435;48.480;9.258;2022-09-09T00:29:53;15.80;85.70
41756;DHT22;27435;48.480;9.258;2022-09-09T00:32:20;16.00;85.20
41756;DHT22;27435;48.480;9.258;2022-09-09T00:34:52;16.00;85.00
41756;DHT22;27435;48.480;9.258;2022-09-09T00:37:20;16.10;84.50
41756;DHT22;27435;48.480;9.258;2022-09-09T00:39:48;16.20;84.30
41756;DHT22;27435;48.480;9.258;2022-09-09T00:42:15;16.10;84.30
41756;DHT22;27435;48.480;9.258;2022-09-09T00:44:52;16.00;85.30
41756;DHT22;27435;48.480;9.258;2022-09-09T00:55:59;16.10;84.80
41756;DHT22;27435;48.480;9.258;2022-09-09T00:58:28;16.20;84.50
41756;DHT22;27435;48.480;9.258;2022-09-09T01:03:38;16.10;85.10
41756;DHT22;27435;48.480;9.258;2022-09-09T01:06:16;16.20;84.90
41756;DHT22;27435;48.480;9.258;2022-09-09T01:11:35;16.10;85.40
41756;DHT22;27435;48.480;9.258;2022-09-09T01:14:29;15.90;86.70
41756;DHT22;27435;48.480;9.258;2022-09-09T01:17:01;15.90;86.90
41756;DHT22;27435;48.480;9.258;2022-09-09T01:22:34;15.80;87.20
41756;DHT22;27435;48.480;9.258;2022-09-09T01:25:27;15.70;87.60
41756;DHT22;27435;48.480;9.258;2022-09-09T01:28:00;15.80;87.60
41756;DHT22;27435;48.480;9.258;2022-09-09T01:30:26;15.70;87.70
41756;DHT22;27435;48.480;9.258;2022-09-09T01:32:57;15.70;88.10
41756;DHT22;27435;48.480;9.258;2022-09-09T01:35:35;15.60;88.90
41756;DHT22;27435;48.480;9.258;2022-09-09T01:38:02;15.60;88.70
41756;DHT22;27435;48.480;9.258;2022-09-09T01:40:28;15.60;88.90
41756;DHT22;27435;48.480;9.258;2022-09-09T01:42:54;15.50;89.40
41756;DHT22;27435;48.480;9.258;2022-09-09T01:45:21;15.40;89.60
41756;DHT22;27435;48.480;9.258;2022-09-09T01:47:47;15.40;89.50
41756;DHT22;27435;48.480;9.258;2022-09-09T01:50:15;15.40;89.30
41756;DHT22;27435;48.480;9.258;2022-09-09T01:52:42;15.20;90.30
41756;DHT22;27435;48.480;9.258;2022-09-09T01:55:09;15.00;91.30
41756;DHT22;27435;48.480;9.258;2022-09-09T01:58:11;14.90;91.80
41756;DHT22;27435;48.480;9.258;2022-09-09T02:00:45;14.90;91.80
41756;DHT22;27435;48.480;9.258;2022-09-09T02:03:27;14.80;93.20
41756;DHT22;27435;48.480;9.258;2022-09-09T02:09:04;14.50;94.40
41756;DHT22;27435;48.480;9.258;2022-09-09T02:11:31;14.40;95.90
41756;DHT22;27435;48.480;9.258;2022-09-09T02:14:05;14.30;95.50
41756;DHT22;27435;48.480;9.258;2022-09-09T02:16:50;14.40;95.00
41756;DHT22;27435;48.480;9.258;2022-09-09T02:19:27;14.40;95.40
41756;DHT22;27435;48.480;9.258;2022-09-09T02:21:59;14.50;95.90
41756;DHT22;27435;48.480;9.258;2022-09-09T02:24:26;14.50;96.40
41756;DHT22;27435;48.480;9.258;2022-09-09T02:26:54;14.40;96.90
41756;DHT22;27435;48.480;9.258;2022-09-09T02:29:39;14.30;97.20
41756;DHT22;27435;48.480;9.258;2022-09-09T02:32:10;14.30;97.90
41756;DHT22;27435;48.480;9.258;2022-09-09T02:34:43;14.10;99.00
41756;DHT22;27435;48.480;9.258;2022-09-09T02:37:10;14.00;99.00
41756;DHT22;27435;48.480;9.258;2022-09-09T02:39:37;14.00;99.00
41756;DHT22;27435;48.480;9.258;2022-09-09T02:42:04;14.00;99.00
41756;DHT22;27435;48.480;9.258;2022-09-09T02:44:30;14.00;99.00
41756;DHT22;27435;48.480;9.258;2022-09-09T02:52:46;14.20;99.00
41756;DHT22;27435;48.480;9.258;2022-09-09T02:55:41;14.10;99.00
41756;DHT22;27435;48.480;9.258;2022-09-09T02:58:12;14.30;99.00
41756;DHT22;27435;48.480;9.258;2022-09-09T03:00:39;14.30;99.00
41756;DHT22;27435;48.480;9.258;2022-09-09T03:03:07;14.30;98.90
41756;DHT22;27435;48.480;9.258;2022-09-09T03:05:34;14.40;98.60
41756;DHT22;27435;48.480;9.258;2022-09-09T03:07:59;14.50;98.60
41756;DHT22;27435;48.480;9.258;2022-09-09T03:10:25;14.60;99.00
41756;DHT22;27435;48.480;9.258;2022-09-09T03:12:51;14.60;99.00
41756;DHT22;27435;48.480;9.258;2022-09-09T03:15:16;14.70;99.00
41756;DHT22;27435;48.480;9.258;2022-09-09T03:17:42;14.70;99.00
41756;DHT22;27435;48.480;9.258;2022-09-09T03:20:08;14.70;99.00
41756;DHT22;27435;48.480;9.258;2022-09-09T03:22:35;14.60;99.00
41756;DHT22;27435;48.480;9.258;2022-09-09T03:25:00;14.60;99.00
41756;DHT22;27435;48.480;9.258;2022-09-09T03:27:28;14.60;99.00
41756;DHT22;27435;48.480;9.258;2022-09-09T03:29:54;14.50;99.00
41756;DHT22;27435;48.480;9.258;2022-09-09T03:32:19;14.60;99.00
41756;DHT22;27435;48.480;9.258;2022-09-09T03:34:48;14.70;99.00
41756;DHT22;27435;48.480;9.258;2022-09-09T03:37:16;14.70;99.00
41756;DHT22;27435;48.480;9.258;2022-09-09T03:39:43;14.70;99.00
41756;DHT22;27435;48.480;9.258;2022-09-09T03:42:08;14.60;99.00
41756;DHT22;27435;48.480;9.258;2022-09-09T03:44:34;14.50;99.00
41756;DHT22;27435;48.480;9.258;2022-09-09T03:46:59;14.50;99.00
41756;DHT22;27435;48.480;9.258;2022-09-09T03:49:28;14.30;99.00
41756;DHT22;27435;48.480;9.258;2022-09-09T03:51:56;14.30;99.00
41756;DHT22;27435;48.480;9.258;2022-09-09T03:54:27;14.30;99.00
41756;DHT22;27435;48.480;9.258;2022-09-09T03:56:54;14.30;99.00
41756;DHT22;27435;48.480;9.258;2022-09-09T03:59:19;14.40;99.00
41756;DHT22;27435;48.480;9.258;2022-09-09T04:01:46;14.50;99.00
41756;DHT22;27435;48.480;9.258;2022-09-09T04:04:12;14.50;99.00
41756;DHT22;27435;48.480;9.258;2022-09-09T04:06:38;14.50;99.00
41756;DHT22;27435;48.480;9.258;2022-09-09T04:09:04;14.50;99.00
41756;DHT22;27435;48.480;9.258;2022-09-09T04:11:30;14.50;99.00
41756;DHT22;27435;48.480;9.258;2022-09-09T04:13:55;14.50;99.00
41756;DHT22;27435;48.480;9.258;2022-09-09T04:16:21;14.40;99.00
41756;DHT22;27435;48.480;9.258;2022-09-09T04:18:47;14.50;99.00
41756;DHT22;27435;48.480;9.258;2022-09-09T04:21:13;14.50;99.00
41756;DHT22;27435;48.480;9.258;2022-09-09T04:23:39;14.30;99.00
41756;DHT22;27435;48.480;9.258;2022-09-09T04:26:05;14.20;99.00
41756;DHT22;27435;48.480;9.258;2022-09-09T04:28:33;14.10;99.00
41756;DHT22;27435;48.480;9.258;2022-09-09T04:31:17;14.10;99.00
41756;DHT22;27435;48.480;9.258;2022-09-09T04:33:44;14.00;99.00
41756;DHT22;27435;48.480;9.258;2022-09-09T04:36:09;13.90;99.00
41756;DHT22;27435;48.480;9.258;2022-09-09T04:38:36;13.90;99.00
41756;DHT22;27435;48.480;9.258;2022-09-09T04:41:01;13.80;99.00
41756;DHT22;27435;48.480;9.258;2022-09-09T04:43:27;13.70;99.00
41756;DHT22;27435;48.480;9.258;2022-09-09T04:45:53;13.70;99.00
41756;DHT22;27435;48.480;9.258;2022-09-09T04:48:19;13.70;99.00
41756;DHT22;27435;48.480;9.258;2022-09-09T04:51:00;13.70;99.00
41756;DHT22;27435;48.480;9.258;2022-09-09T04:53:26;13.60;99.00
41756;DHT22;27435;48.480;9.258;2022-09-09T04:56:00;13.50;99.00
41756;DHT22;27435;48.480;9.258;2022-09-09T04:58:26;13.50;99.00
41756;DHT22;27435;48.480;9.258;2022-09-09T05:00:52;13.40;99.00
41756;DHT22;27435;48.480;9.258;2022-09-09T05:03:17;13.40;99.00
41756;DHT22;27435;48.480;9.258;2022-09-09T05:05:43;13.40;99.00
41756;DHT22;27435;48.480;9.258;2022-09-09T05:08:09;13.40;99.00
41756;DHT22;27435;48.480;9.258;2022-09-09T05:10:37;13.40;99.00
41756;DHT22;27435;48.480;9.258;2022-09-09T05:13:04;13.40;99.00
41756;DHT22;27435;48.480;9.258;2022-09-09T05:15:30;13.50;99.00
41756;DHT22;27435;48.480;9.258;2022-09-09T05:18:00;13.50;99.00
41756;DHT22;27435;48.480;9.258;2022-09-09T05:20:26;13.60;99.00
41756;DHT22;27435;48.480;9.258;2022-09-09T05:22:56;13.70;99.00
41756;DHT22;27435;48.480;9.258;2022-09-09T05:25:22;13.80;99.00
41756;DHT22;27435;48.480;9.258;2022-09-09T05:27:49;13.90;99.00
41756;DHT22;27435;48.480;9.258;2022-09-09T05:30:15;14.00;99.00
41756;DHT22;27435;48.480;9.258;2022-09-09T05:32:41;14.20;99.00
41756;DHT22;27435;48.480;9.258;2022-09-09T05:35:07;14.20;99.00
41756;DHT22;27435;48.480;9.258;2022-09-09T05:37:32;14.20;99.00
41756;DHT22;27435;48.480;9.258;2022-09-09T05:39:58;14.30;99.00
41756;DHT22;27435;48.480;9.258;2022-09-09T05:42:24;14.40;99.00
41756;DHT22;27435;48.480;9.258;2022-09-09T05:44:49;14.50;99.00
41756;DHT22;27435;48.480;9.258;2022-09-09T05:47:16;14.40;99.00
41756;DHT22;27435;48.480;9.258;2022-09-09T05:49:42;14.40;99.00
41756;DHT22;27435;48.480;9.258;2022-09-09T05:52:08;14.50;99.00
41756;DHT22;27435;48.480;9.258;2022-09-09T05:54:35;14.60;99.00
41756;DHT22;27435;48.480;9.258;2022-09-09T05:57:01;14.70;99.00
41756;DHT22;27435;48.480;9.258;2022-09-09T05:59:26;14.80;99.00
41756;DHT22;27435;48.480;9.258;2022-09-09T06:01:52;14.90;99.00
41756;DHT22;27435;48.480;9.258;2022-09-09T06:04:18;15.00;99.00
41756;DHT22;27435;48.480;9.258;2022-09-09T06:06:46;15.20;99.00
41756;DHT22;27435;48.480;9.258;2022-09-09T06:09:11;15.30;99.00
41756;DHT22;27435;48.480;9.258;2022-09-09T06:11:39;15.50;99.00
41756;DHT22;27435;48.480;9.258;2022-09-09T06:14:05;15.50;99.00
41756;DHT22;27435;48.480;9.258;2022-09-09T06:16:32;15.80;99.00
41756;DHT22;27435;48.480;9.258;2022-09-09T06:18:58;16.00;99.00
41756;DHT22;27435;48.480;9.258;2022-09-09T06:21:26;16.10;99.00
41756;DHT22;27435;48.480;9.258;2022-09-09T06:23:52;16.10;99.00
41756;DHT22;27435;48.480;9.258;2022-09-09T06:28:55;16.30;99.00
41756;DHT22;27435;48.480;9.258;2022-09-09T06:31:22;16.20;99.00
41756;DHT22;27435;48.480;9.258;2022-09-09T06:33:50;16.20;99.00
41756;DHT22;27435;48.480;9.258;2022-09-09T06:36:25;16.30;99.00
41756;DHT22;27435;48.480;9.258;2022-09-09T06:38:51;16.30;99.00
41756;DHT22;27435;48.480;9.258;2022-09-09T06:41:18;16.30;99.00
41756;DHT22;27435;48.480;9.258;2022-09-09T06:43:48;16.40;99.00
41756;DHT22;27435;48.480;9.258;2022-09-09T06:46:29;16.50;99.00
41756;DHT22;27435;48.480;9.258;2022-09-09T06:48:56;16.70;99.00
41756;DHT22;27435;48.480;9.258;2022-09-09T06:51:33;17.00;99.00
41756;DHT22;27435;48.480;9.258;2022-09-09T06:53:59;17.00;99.00
41756;DHT22;27435;48.480;9.258;2022-09-09T06:56:28;17.30;99.00
41756;DHT22;27435;48.480;9.258;2022-09-09T06:58:56;17.50;99.00
41756;DHT22;27435;48.480;9.258;2022-09-09T07:01:27;17.70;99.00
41756;DHT22;27435;48.480;9.258;2022-09-09T07:03:55;18.00;98.80
41756;DHT22;27435;48.480;9.258;2022-09-09T07:06:23;18.20;97.50
41756;DHT22;27435;48.480;9.258;2022-09-09T07:09:03;18.40;97.20
41756;DHT22;27435;48.480;9.258;2022-09-09T07:11:31;18.60;96.30
41756;DHT22;27435;48.480;9.258;2022-09-09T07:13:59;18.70;95.40
41756;DHT22;27435;48.480;9.258;2022-09-09T07:16:25;18.80;94.30
41756;DHT22;27435;48.480;9.258;2022-09-09T07:18:53;18.80;94.80
41756;DHT22;27435;48.480;9.258;2022-09-09T07:21:23;19.00;94.30
41756;DHT22;27435;48.480;9.258;2022-09-09T07:23:50;19.40;93.10
41756;DHT22;27435;48.480;9.258;2022-09-09T07:26:18;19.70;91.80
41756;DHT22;27435;48.480;9.258;2022-09-09T07:28:48;19.70;91.40
41756;DHT22;27435;48.480;9.258;2022-09-09T07:31:22;19.80;91.00
41756;DHT22;27435;48.480;9.258;2022-09-09T07:33:49;20.00;89.00
41756;DHT22;27435;48.480;9.258;2022-09-09T07:36:24;19.90;90.10
41756;DHT22;27435;48.480;9.258;2022-09-09T07:38:53;19.90;87.70
41756;DHT22;27435;48.480;9.258;2022-09-09T07:41:21;19.20;88.10
41756;DHT22;27435;48.480;9.258;2022-09-09T07:43:48;18.90;89.30
41756;DHT22;27435;48.480;9.258;2022-09-09T07:46:16;18.90;90.70
41756;DHT22;27435;48.480;9.258;2022-09-09T07:48:47;19.30;89.00
41756;DHT22;27435;48.480;9.258;2022-09-09T07:51:21;19.60;87.60
41756;DHT22;27435;48.480;9.258;2022-09-09T07:53:48;19.80;87.40
41756;DHT22;27435;48.480;9.258;2022-09-09T07:56:16;20.00;88.60
41756;DHT22;27435;48.480;9.258;2022-09-09T07:58:44;19.90;88.10
41756;DHT22;27435;48.480;9.258;2022-09-09T08:01:16;20.10;88.40
41756;DHT22;27435;48.480;9.258;2022-09-09T08:03:44;20.10;88.50
41756;DHT22;27435;48.480;9.258;2022-09-09T08:06:10;19.90;89.10
41756;DHT22;27435;48.480;9.258;2022-09-09T08:08:38;19.90;89.60
41756;DHT22;27435;48.480;9.258;2022-09-09T08:11:24;20.00;86.90
41756;DHT22;27435;48.480;9.258;2022-09-09T08:13:51;20.00;87.30
41756;DHT22;27435;48.480;9.258;2022-09-09T08:16:19;19.80;89.30
41756;DHT22;27435;48.480;9.258;2022-09-09T08:18:49;19.80;90.30
41756;DHT22;27435;48.480;9.258;2022-09-09T08:21:18;20.00;88.90
41756;DHT22;27435;48.480;9.258;2022-09-09T08:23:46;20.00;88.10
41756;DHT22;27435;48.480;9.258;2022-09-09T08:26:20;19.90;88.80
41756;DHT22;27435;48.480;9.258;2022-09-09T08:28:52;20.20;88.80
41756;DHT22;27435;48.480;9.258;2022-09-09T08:31:21;20.40;88.70
41756;DHT22;27435;48.480;9.258;2022-09-09T08:33:47;20.40;88.00
41756;DHT22;27435;48.480;9.258;2022-09-09T08:36:18;20.50;88.10
41756;DHT22;27435;48.480;9.258;2022-09-09T08:38:50;20.60;88.70
41756;DHT22;27435;48.480;9.258;2022-09-09T08:44:10;20.30;89.10
41756;DHT22;27435;48.480;9.258;2022-09-09T08:49:29;20.20;86.70
41756;DHT22;27435;48.480;9.258;2022-09-09T08:51:59;19.90;86.90
41756;DHT22;27435;48.480;9.258;2022-09-09T08:54:30;19.50;83.90
41756;DHT22;27435;48.480;9.258;2022-09-09T08:56:57;19.50;84.20
41756;DHT22;27435;48.480;9.258;2022-09-09T08:59:23;19.70;83.30
41756;DHT22;27435;48.480;9.258;2022-09-09T09:02:35;20.00;83.40
41756;DHT22;27435;48.480;9.258;2022-09-09T09:12:41;20.60;78.80
41756;DHT22;27435;48.480;9.258;2022-09-09T09:15:18;20.50;78.70
41756;DHT22;27435;48.480;9.258;2022-09-09T09:17:44;20.30;79.50
41756;DHT22;27435;48.480;9.258;2022-09-09T09:20:15;20.00;80.10
41756;DHT22;27435;48.480;9.258;2022-09-09T09:22:49;19.90;80.70
41756;DHT22;27435;48.480;9.258;2022-09-09T09:30:20;20.10;81.20
41756;DHT22;27435;48.480;9.258;2022-09-09T09:32:54;20.30;80.60
41756;DHT22;27435;48.480;9.258;2022-09-09T09:35:21;20.50;81.10
41756;DHT22;27435;48.480;9.258;2022-09-09T09:37:48;20.40;80.90
41756;DHT22;27435;48.480;9.258;2022-09-09T09:40:14;20.30;79.90
41756;DHT22;27435;48.480;9.258;2022-09-09T09:43:16;20.20;79.20
41756;DHT22;27435;48.480;9.258;2022-09-09T09:45:45;20.40;78.40
41756;DHT22;27435;48.480;9.258;2022-09-09T09:48:12;20.30;78.70
41756;DHT22;27435;48.480;9.258;2022-09-09T09:51:00;20.30;77.80
41756;DHT22;27435;48.480;9.258;2022-09-09T09:53:30;20.30;75.40
41756;DHT22;27435;48.480;9.258;2022-09-09T09:55:58;20.30;74.20
41756;DHT22;27435;48.480;9.258;2022-09-09T09:58:33;20.50;73.80
41756;DHT22;27435;48.480;9.258;2022-09-09T10:01:01;20.50;74.20
41756;DHT22;27435;48.480;9.258;2022-09-09T10:03:30;20.60;74.80
41756;DHT22;27435;48.480;9.258;2022-09-09T10:05:57;20.80;73.00
41756;DHT22;27435;48.480;9.258;2022-09-09T10:08:27;21.00;72.00
41756;DHT22;27435;48.480;9.258;2022-09-09T10:11:06;21.20;71.10
41756;DHT22;27435;48.480;9.258;2022-09-09T10:18:59;21.60;70.40
41756;DHT22;27435;48.480;9.258;2022-09-09T10:30:19;20.90;69.80
41756;DHT22;27435;48.480;9.258;2022-09-09T10:32:48;20.40;70.20
41756;DHT22;27435;48.480;9.258;2022-09-09T10:35:35;20.10;71.00
41756;DHT22;27435;48.480;9.258;2022-09-09T10:38:15;20.40;72.20
41756;DHT22;27435;48.480;9.258;2022-09-09T10:46:31;20.90;72.10
41756;DHT22;27435;48.480;9.258;2022-09-09T10:52:10;21.30;69.00
41756;DHT22;27435;48.480;9.258;2022-09-09T10:57:35;21.10;68.10
41756;DHT22;27435;48.480;9.258;2022-09-09T11:00:13;21.20;68.70
41756;DHT22;27435;48.480;9.258;2022-09-09T11:02:41;21.00;68.10
41756;DHT22;27435;48.480;9.258;2022-09-09T11:05:17;21.10;68.30
41756;DHT22;27435;48.480;9.258;2022-09-09T11:07:58;21.00;67.60
41756;DHT22;27435;48.480;9.258;2022-09-09T11:13:23;21.50;67.10
41756;DHT22;27435;48.480;9.258;2022-09-09T11:15:58;21.60;65.90
41756;DHT22;27435;48.480;9.258;2022-09-09T11:18:28;21.60;65.00
41756;DHT22;27435;48.480;9.258;2022-09-09T11:20:59;21.10;65.60
41756;DHT22;27435;48.480;9.258;2022-09-09T11:23:46;21.00;66.00
41756;DHT22;27435;48.480;9.258;2022-09-09T11:26:21;20.90;66.10
41756;DHT22;27435;48.480;9.258;2022-09-09T11:29:17;20.90;66.20
41756;DHT22;27435;48.480;9.258;2022-09-09T11:40:04;21.90;65.90
41756;DHT22;27435;48.480;9.258;2022-09-09T11:42:33;21.20;66.20
41756;DHT22;27435;48.480;9.258;2022-09-09T11:45:10;20.80;70.20
41756;DHT22;27435;48.480;9.258;2022-09-09T11:47:36;20.30;72.20
41756;DHT22;27435;48.480;9.258;2022-09-09T11:52:45;19.20;75.40
41756;DHT22;27435;48.480;9.258;2022-09-09T11:55:31;19.40;75.00
41756;DHT22;27435;48.480;9.258;2022-09-09T11:58:06;19.30;75.70
41756;DHT22;27435;48.480;9.258;2022-09-09T12:00:45;19.60;74.60
41756;DHT22;27435;48.480;9.258;2022-09-09T12:05:56;19.70;73.90
41756;DHT22;27435;48.480;9.258;2022-09-09T12:08:27;19.50;73.10
41756;DHT22;27435;48.480;9.258;2022-09-09T12:10:56;19.90;72.70
41756;DHT22;27435;48.480;9.258;2022-09-09T12:13:24;19.90;72.10
41756;DHT22;27435;48.480;9.258;2022-09-09T12:15:56;20.10;71.10
41756;DHT22;27435;48.480;9.258;2022-09-09T12:18:38;20.60;70.20
41756;DHT22;27435;48.480;9.258;2022-09-09T12:21:18;21.00;68.10
41756;DHT22;27435;48.480;9.258;2022-09-09T12:23:55;20.90;66.80
41756;DHT22;27435;48.480;9.258;2022-09-09T12:26:38;21.00;67.10
41756;DHT22;27435;48.480;9.258;2022-09-09T12:29:14;21.20;67.00
41756;DHT22;27435;48.480;9.258;2022-09-09T12:37:56;20.90;65.30
41756;DHT22;27435;48.480;9.258;2022-09-09T12:40:32;20.50;67.10
41756;DHT22;27435;48.480;9.258;2022-09-09T12:43:01;20.60;66.00
41756;DHT22;27435;48.480;9.258;2022-09-09T12:45:30;20.60;65.90
41756;DHT22;27435;48.480;9.258;2022-09-09T12:48:00;20.60;66.30
41756;DHT22;27435;48.480;9.258;2022-09-09T12:50:29;20.50;66.90
41756;DHT22;27435;48.480;9.258;2022-09-09T12:53:02;20.60;67.40
41756;DHT22;27435;48.480;9.258;2022-09-09T12:55:31;20.70;67.40
41756;DHT22;27435;48.480;9.258;2022-09-09T12:57:59;20.60;69.00
41756;DHT22;27435;48.480;9.258;2022-09-09T13:00:26;20.60;69.40
41756;DHT22;27435;48.480;9.258;2022-09-09T13:02:57;20.50;70.40
41756;DHT22;27435;48.480;9.258;2022-09-09T13:05:34;20.30;71.50
41756;DHT22;27435;48.480;9.258;2022-09-09T13:08:05;20.40;70.60
41756;DHT22;27435;48.480;9.258;2022-09-09T13:10:35;20.60;70.00
41756;DHT22;27435;48.480;9.258;2022-09-09T13:13:05;20.80;69.70
41756;DHT22;27435;48.480;9.258;2022-09-09T13:15:37;20.50;69.70
41756;DHT22;27435;48.480;9.258;2022-09-09T13:18:11;20.70;68.20
41756;DHT22;27435;48.480;9.258;2022-09-09T13:20:37;20.80;68.60
41756;DHT22;27435;48.480;9.258;2022-09-09T13:23:03;21.40;67.40
41756;DHT22;27435;48.480;9.258;2022-09-09T13:25:29;22.10;64.90
41756;DHT22;27435;48.480;9.258;2022-09-09T13:27:56;21.80;63.90
41756;DHT22;27435;48.480;9.258;2022-09-09T13:30:29;21.90;64.50
41756;DHT22;27435;48.480;9.258;2022-09-09T13:33:21;22.40;63.10
41756;DHT22;27435;48.480;9.258;2022-09-09T13:35:55;22.70;61.30
41756;DHT22;27435;48.480;9.258;2022-09-09T13:38:21;22.20;62.30
41756;DHT22;27435;48.480;9.258;2022-09-09T13:41:18;22.40;62.20
41756;DHT22;27435;48.480;9.258;2022-09-09T13:43:45;22.10;63.30
41756;DHT22;27435;48.480;9.258;2022-09-09T13:46:25;22.10;64.60
41756;DHT22;27435;48.480;9.258;2022-09-09T13:49:19;22.80;63.10
41756;DHT22;27435;48.480;9.258;2022-09-09T13:51:50;23.10;61.90
41756;DHT22;27435;48.480;9.258;2022-09-09T13:54:19;23.30;60.90
41756;DHT22;27435;48.480;9.258;2022-09-09T13:56:46;23.50;59.60
41756;DHT22;27435;48.480;9.258;2022-09-09T13:59:16;22.50;61.70
41756;DHT22;27435;48.480;9.258;2022-09-09T14:01:42;22.40;62.80
41756;DHT22;27435;48.480;9.258;2022-09-09T14:04:09;22.70;61.80
41756;DHT22;27435;48.480;9.258;2022-09-09T14:06:36;22.90;61.90
41756;DHT22;27435;48.480;9.258;2022-09-09T14:09:04;22.90;62.90
41756;DHT22;27435;48.480;9.258;2022-09-09T14:11:30;23.40;59.70
41756;DHT22;27435;48.480;9.258;2022-09-09T14:13:55;23.50;59.70
41756;DHT22;27435;48.480;9.258;2022-09-09T14:16:21;23.80;59.10
41756;DHT22;27435;48.480;9.258;2022-09-09T14:18:47;23.70;57.70
41756;DHT22;27435;48.480;9.258;2022-09-09T14:21:13;23.80;57.30
41756;DHT22;27435;48.480;9.258;2022-09-09T14:23:40;23.70;56.50
41756;DHT22;27435;48.480;9.258;2022-09-09T14:26:06;23.70;56.00
41756;DHT22;27435;48.480;9.258;2022-09-09T14:28:31;23.80;56.70
41756;DHT22;27435;48.480;9.258;2022-09-09T14:31:02;23.50;56.50
41756;DHT22;27435;48.480;9.258;2022-09-09T14:33:29;23.50;56.70
41756;DHT22;27435;48.480;9.258;2022-09-09T14:35:59;23.60;56.10
41756;DHT22;27435;48.480;9.258;2022-09-09T14:38:29;23.80;56.40
41756;DHT22;27435;48.480;9.258;2022-09-09T14:40:55;23.70;57.00
41756;DHT22;27435;48.480;9.258;2022-09-09T14:43:21;23.80;57.40
41756;DHT22;27435;48.480;9.258;2022-09-09T14:45:47;22.90;58.60
41756;DHT22;27435;48.480;9.258;2022-09-09T14:48:19;23.40;56.60
41756;DHT22;27435;48.480;9.258;2022-09-09T14:50:44;23.80;55.90
41756;DHT22;27435;48.480;9.258;2022-09-09T14:53:10;24.00;55.70
41756;DHT22;27435;48.480;9.258;2022-09-09T14:55:36;24.10;54.30
41756;DHT22;27435;48.480;9.258;2022-09-09T14:58:03;23.60;54.70
41756;DHT22;27435;48.480;9.258;2022-09-09T15:00:29;23.60;54.50
41756;DHT22;27435;48.480;9.258;2022-09-09T15:02:54;23.40;55.10
41756;DHT22;27435;48.480;9.258;2022-09-09T15:05:21;23.30;54.90
41756;DHT22;27435;48.480;9.258;2022-09-09T15:07:47;22.50;57.00
41756;DHT22;27435;48.480;9.258;2022-09-09T15:10:14;22.50;57.70
41756;DHT22;27435;48.480;9.258;2022-09-09T15:12:40;23.30;55.60
41756;DHT22;27435;48.480;9.258;2022-09-09T15:15:08;22.90;56.20
41756;DHT22;27435;48.480;9.258;2022-09-09T15:17:34;22.10;58.10
41756;DHT22;27435;48.480;9.258;2022-09-09T15:19:59;21.60;59.50
41756;DHT22;27435;48.480;9.258;2022-09-09T15:22:25;21.80;59.10
41756;DHT22;27435;48.480;9.258;2022-09-09T15:24:51;22.60;57.80
41756;DHT22;27435;48.480;9.258;2022-09-09T15:27:16;23.40;55.90
41756;DHT22;27435;48.480;9.258;2022-09-09T15:29:43;23.50;55.70
41756;DHT22;27435;48.480;9.258;2022-09-09T15:32:09;22.70;57.20
41756;DHT22;27435;48.480;9.258;2022-09-09T15:34:35;22.00;59.10
41756;DHT22;27435;48.480;9.258;2022-09-09T15:37:01;21.60;61.00
41756;DHT22;27435;48.480;9.258;2022-09-09T15:39:26;21.40;61.60
41756;DHT22;27435;48.480;9.258;2022-09-09T15:41:52;21.40;61.50
41756;DHT22;27435;48.480;9.258;2022-09-09T15:44:18;21.10;62.00
41756;DHT22;27435;48.480;9.258;2022-09-09T15:46:46;21.10;61.70
41756;DHT22;27435;48.480;9.258;2022-09-09T15:49:16;21.00;60.70
41756;DHT22;27435;48.480;9.258;2022-09-09T15:51:55;20.90;59.40
41756;DHT22;27435;48.480;9.258;2022-09-09T15:54:22;20.90;58.60
41756;DHT22;27435;48.480;9.258;2022-09-09T15:56:56;21.60;57.70
41756;DHT22;27435;48.480;9.258;2022-09-09T15:59:26;22.60;55.40
41756;DHT22;27435;48.480;9.258;2022-09-09T16:01:56;23.20;54.90
41756;DHT22;27435;48.480;9.258;2022-09-09T16:04:23;22.50;55.60
41756;DHT22;27435;48.480;9.258;2022-09-09T16:07:03;21.70;57.10
41756;DHT22;27435;48.480;9.258;2022-09-09T16:09:30;21.30;58.30
41756;DHT22;27435;48.480;9.258;2022-09-09T16:12:00;21.70;58.10
41756;DHT22;27435;48.480;9.258;2022-09-09T16:14:27;22.40;56.30
41756;DHT22;27435;48.480;9.258;2022-09-09T16:16:53;22.10;57.00
41756;DHT22;27435;48.480;9.258;2022-09-09T16:22:43;21.50;58.90
41756;DHT22;27435;48.480;9.258;2022-09-09T16:25:08;21.20;59.40
41756;DHT22;27435;48.480;9.258;2022-09-09T16:27:35;20.80;60.30
41756;DHT22;27435;48.480;9.258;2022-09-09T16:30:01;20.80;60.70
41756;DHT22;27435;48.480;9.258;2022-09-09T16:32:26;21.80;59.20
41756;DHT22;27435;48.480;9.258;2022-09-09T16:34:52;22.50;57.70
41756;DHT22;27435;48.480;9.258;2022-09-09T16:37:17;22.70;57.20
41756;DHT22;27435;48.480;9.258;2022-09-09T16:39:43;22.00;59.50
41756;DHT22;27435;48.480;9.258;2022-09-09T16:42:08;21.60;61.20
41756;DHT22;27435;48.480;9.258;2022-09-09T16:44:35;21.10;62.10
41756;DHT22;27435;48.480;9.258;2022-09-09T16:47:00;20.90;62.90
41756;DHT22;27435;48.480;9.258;2022-09-09T16:49:26;20.60;64.20
41756;DHT22;27435;48.480;9.258;2022-09-09T16:51:52;20.20;65.00
41756;DHT22;27435;48.480;9.258;2022-09-09T16:54:18;19.90;65.90
41756;DHT22;27435;48.480;9.258;2022-09-09T16:56:47;19.70;66.70
41756;DHT22;27435;48.480;9.258;2022-09-09T16:59:20;19.40;67.90
41756;DHT22;27435;48.480;9.258;2022-09-09T17:01:48;19.20;68.80
41756;DHT22;27435;48.480;9.258;2022-09-09T17:04:17;19.10;69.30
41756;DHT22;27435;48.480;9.258;2022-09-09T17:06:47;18.90;69.90
41756;DHT22;27435;48.480;9.258;2022-09-09T17:09:15;18.70;70.90
41756;DHT22;27435;48.480;9.258;2022-09-09T17:11:40;18.60;71.50
41756;DHT22;27435;48.480;9.258;2022-09-09T17:14:08;18.50;71.90
41756;DHT22;27435;48.480;9.258;2022-09-09T17:16:35;18.50;72.30
41756;DHT22;27435;48.480;9.258;2022-09-09T17:19:01;18.40;72.70
41756;DHT22;27435;48.480;9.258;2022-09-09T17:24:50;18.20;73.50
41756;DHT22;27435;48.480;9.258;2022-09-09T17:27:16;18.10;74.20
41756;DHT22;27435;48.480;9.258;2022-09-09T17:29:41;18.00;74.40